sensor_id;sensor_type;location;lat;lon;timestamp;temperature;humidity
63051;SHT30;49136;47.416;19.402;2023-07-28T00:02:17;13.12;94.92
63051;SHT30;49136;47.416;19.402;2023-07-28T00:04:43;13.16;94.37
63051;SHT30;49136;47.416;19.402;2023-07-28T00:07:08;13.20;95.06
63051;SHT30;49136;47.416;19.402;2023-07-28T00:09:33;13.26;94.89
63051;SHT30;49136;47.416;19.402;2023-07-28T00:12:00;13.33;95.37
63051;SHT30;49136;47.416;19.402;2023-07-28T00:14:26;13.38;94.45
63051;SHT30;49136;47.416;19.402;2023-07-28T00:16:53;13.44;94.71
63051;SHT30;49136;47.416;19.402;2023-07-28T00:19:19;13.51;94.85
63051;SHT30;49136;47.416;19.402;2023-07-28T00:21:50;13.48;94.44
63051;SHT30;49136;47.416;19.402;2023-07-28T00:24:16;13.50;94.82
63051;SHT30;49136;47.416;19.402;2023-07-28T00:26:42;13.51;94.44
63051;SHT30;49136;47.416;19.402;2023-07-28T00:29:08;13.50;94.43
63051;SHT30;49136;47.416;19.402;2023-07-28T00:31:33;13.47;94.12
63051;SHT30;49136;47.416;19.402;2023-07-28T00:33:59;13.43;93.94
63051;SHT30;49136;47.416;19.402;2023-07-28T00:36:26;13.38;93.66
63051;SHT30;49136;47.416;19.402;2023-07-28T00:38:51;13.37;94.19
63051;SHT30;49136;47.416;19.402;2023-07-28T00:41:18;13.48;93.26
63051;SHT30;49136;47.416;19.402;2023-07-28T00:43:43;13.55;93.02
63051;SHT30;49136;47.416;19.402;2023-07-28T00:46:14;13.54;93.25
63051;SHT30;49136;47.416;19.402;2023-07-28T00:48:40;13.57;93.04
63051;SHT30;49136;47.416;19.402;2023-07-28T00:51:06;13.59;93.53
63051;SHT30;49136;47.416;19.402;2023-07-28T00:53:32;13.62;93.70
63051;SHT30;49136;47.416;19.402;2023-07-28T00:55:58;13.64;94.15
63051;SHT30;49136;47.416;19.402;2023-07-28T00:58:24;13.66;93.94
63051;SHT30;49136;47.416;19.402;2023-07-28T01:00:51;13.69;95.26
63051;SHT30;49136;47.416;19.402;2023-07-28T01:03:17;13.73;94.29
63051;SHT30;49136;47.416;19.402;2023-07-28T01:08:52;13.76;93.47
63051;SHT30;49136;47.416;19.402;2023-07-28T01:11:18;13.85;92.21
63051;SHT30;49136;47.416;19.402;2023-07-28T01:13:44;13.91;92.64
63051;SHT30;49136;47.416;19.402;2023-07-28T01:16:09;13.96;91.20
63051;SHT30;49136;47.416;19.402;2023-07-28T01:18:35;14.03;90.84
63051;SHT30;49136;47.416;19.402;2023-07-28T01:21:02;14.07;92.57
63051;SHT30;49136;47.416;19.402;2023-07-28T01:23:44;14.07;93.12
63051;SHT30;49136;47.416;19.402;2023-07-28T01:26:15;14.09;92.30
63051;SHT30;49136;47.416;19.402;2023-07-28T01:28:42;14.14;90.94
63051;SHT30;49136;47.416;19.402;2023-07-28T01:31:08;14.23;90.43
63051;SHT30;49136;47.416;19.402;2023-07-28T01:33:34;14.28;89.75
63051;SHT30;49136;47.416;19.402;2023-07-28T01:36:00;14.37;89.15
63051;SHT30;49136;47.416;19.402;2023-07-28T01:38:27;14.45;88.66
63051;SHT30;49136;47.416;19.402;2023-07-28T01:40:52;14.51;88.13
63051;SHT30;49136;47.416;19.402;2023-07-28T01:43:18;14.55;88.37
63051;SHT30;49136;47.416;19.402;2023-07-28T01:45:43;14.61;89.12
63051;SHT30;49136;47.416;19.402;2023-07-28T01:48:09;14.64;87.96
63051;SHT30;49136;47.416;19.402;2023-07-28T01:50:35;14.72;87.72
63051;SHT30;49136;47.416;19.402;2023-07-28T01:53:01;14.76;87.94
63051;SHT30;49136;47.416;19.402;2023-07-28T01:55:27;14.76;88.58
63051;SHT30;49136;47.416;19.402;2023-07-28T01:57:59;14.77;88.33
63051;SHT30;49136;47.416;19.402;2023-07-28T02:00:26;14.79;88.86
63051;SHT30;49136;47.416;19.402;2023-07-28T02:02:52;14.80;89.02
63051;SHT30;49136;47.416;19.402;2023-07-28T02:05:18;14.79;90.32
63051;SHT30;49136;47.416;19.402;2023-07-28T02:07:44;14.80;90.08
63051;SHT30;49136;47.416;19.402;2023-07-28T02:10:10;14.86;89.59
63051;SHT30;49136;47.416;19.402;2023-07-28T02:12:36;14.90;89.55
63051;SHT30;49136;47.416;19.402;2023-07-28T02:15:02;14.91;89.40
63051;SHT30;49136;47.416;19.402;2023-07-28T02:17:27;14.97;89.51
63051;SHT30;49136;47.416;19.402;2023-07-28T02:19:53;14.99;89.51
63051;SHT30;49136;47.416;19.402;2023-07-28T02:22:18;14.99;89.45
63051;SHT30;49136;47.416;19.402;2023-07-28T02:24:43;14.97;90.38
63051;SHT30;49136;47.416;19.402;2023-07-28T02:27:09;14.91;90.82
63051;SHT30;49136;47.416;19.402;2023-07-28T02:29:34;14.91;90.81
63051;SHT30;49136;47.416;19.402;2023-07-28T02:32:00;14.89;90.46
63051;SHT30;49136;47.416;19.402;2023-07-28T02:34:25;14.91;90.57
63051;SHT30;49136;47.416;19.402;2023-07-28T02:36:51;14.91;89.44
63051;SHT30;49136;47.416;19.402;2023-07-28T02:39:16;14.93;89.00
63051;SHT30;49136;47.416;19.402;2023-07-28T02:41:42;14.89;89.17
63051;SHT30;49136;47.416;19.402;2023-07-28T02:44:07;14.84;89.09
63051;SHT30;49136;47.416;19.402;2023-07-28T02:46:33;14.80;88.76
63051;SHT30;49136;47.416;19.402;2023-07-28T02:48:58;14.80;89.23
63051;SHT30;49136;47.416;19.402;2023-07-28T02:51:24;14.82;88.98
63051;SHT30;49136;47.416;19.402;2023-07-28T02:53:49;14.82;89.11
63051;SHT30;49136;47.416;19.402;2023-07-28T02:56:14;14.75;89.72
63051;SHT30;49136;47.416;19.402;2023-07-28T02:58:40;14.68;90.16
63051;SHT30;49136;47.416;19.402;2023-07-28T03:01:05;14.54;89.57
63051;SHT30;49136;47.416;19.402;2023-07-28T03:03:30;14.52;90.05
63051;SHT30;49136;47.416;19.402;2023-07-28T03:05:56;14.55;89.52
63051;SHT30;49136;47.416;19.402;2023-07-28T03:08:21;14.52;89.82
63051;SHT30;49136;47.416;19.402;2023-07-28T03:10:47;14.54;89.13
63051;SHT30;49136;47.416;19.402;2023-07-28T03:13:12;14.56;90.15
63051;SHT30;49136;47.416;19.402;2023-07-28T03:15:38;14.62;89.40
63051;SHT30;49136;47.416;19.402;2023-07-28T03:18:03;14.66;89.87
63051;SHT30;49136;47.416;19.402;2023-07-28T03:20:29;14.69;89.54
63051;SHT30;49136;47.416;19.402;2023-07-28T03:22:55;14.73;89.10
63051;SHT30;49136;47.416;19.402;2023-07-28T03:25:20;14.76;88.52
63051;SHT30;49136;47.416;19.402;2023-07-28T03:27:46;14.87;87.35
63051;SHT30;49136;47.416;19.402;2023-07-28T03:30:11;14.99;86.74
63051;SHT30;49136;47.416;19.402;2023-07-28T03:32:36;15.01;86.70
63051;SHT30;49136;47.416;19.402;2023-07-28T03:35:03;15.11;86.10
63051;SHT30;49136;47.416;19.402;2023-07-28T03:37:33;15.12;86.33
63051;SHT30;49136;47.416;19.402;2023-07-28T03:39:58;15.18;86.25
63051;SHT30;49136;47.416;19.402;2023-07-28T03:42:24;15.20;86.25
63051;SHT30;49136;47.416;19.402;2023-07-28T03:44:49;15.21;85.93
63051;SHT30;49136;47.416;19.402;2023-07-28T03:47:15;15.25;86.26
63051;SHT30;49136;47.416;19.402;2023-07-28T03:49:40;15.23;86.23
63051;SHT30;49136;47.416;19.402;2023-07-28T03:52:06;15.27;86.21
63051;SHT30;49136;47.416;19.402;2023-07-28T03:54:31;15.30;86.33
63051;SHT30;49136;47.416;19.402;2023-07-28T03:56:57;15.42;85.44
63051;SHT30;49136;47.416;19.402;2023-07-28T03:59:22;15.48;85.60
63051;SHT30;49136;47.416;19.402;2023-07-28T04:01:47;15.49;85.58
63051;SHT30;49136;47.416;19.402;2023-07-28T04:04:13;15.46;85.57
63051;SHT30;49136;47.416;19.402;2023-07-28T04:06:43;15.43;85.95
63051;SHT30;49136;47.416;19.402;2023-07-28T04:09:10;15.46;86.29
63051;SHT30;49136;47.416;19.402;2023-07-28T04:11:36;15.45;86.21
63051;SHT30;49136;47.416;19.402;2023-07-28T04:14:02;15.58;85.49
63051;SHT30;49136;47.416;19.402;2023-07-28T04:16:27;15.83;84.70
63051;SHT30;49136;47.416;19.402;2023-07-28T04:18:53;16.08;84.88
63051;SHT30;49136;47.416;19.402;2023-07-28T04:21:18;16.32;83.70
63051;SHT30;49136;47.416;19.402;2023-07-28T04:23:44;16.53;83.89
63051;SHT30;49136;47.416;19.402;2023-07-28T04:26:09;16.64;82.78
63051;SHT30;49136;47.416;19.402;2023-07-28T04:28:35;16.63;83.61
63051;SHT30;49136;47.416;19.402;2023-07-28T04:31:00;16.67;83.16
63051;SHT30;49136;47.416;19.402;2023-07-28T04:33:26;16.71;83.39
63051;SHT30;49136;47.416;19.402;2023-07-28T04:35:51;16.83;82.77
63051;SHT30;49136;47.416;19.402;2023-07-28T04:38:17;16.91;82.40
63051;SHT30;49136;47.416;19.402;2023-07-28T04:40:43;17.00;82.20
63051;SHT30;49136;47.416;19.402;2023-07-28T04:43:09;17.04;81.70
63051;SHT30;49136;47.416;19.402;2023-07-28T04:45:35;17.04;81.94
63051;SHT30;49136;47.416;19.402;2023-07-28T04:48:00;17.05;81.85
63051;SHT30;49136;47.416;19.402;2023-07-28T04:50:25;17.12;81.49
63051;SHT30;49136;47.416;19.402;2023-07-28T04:52:51;17.15;81.35
63051;SHT30;49136;47.416;19.402;2023-07-28T04:55:16;17.19;81.27
63051;SHT30;49136;47.416;19.402;2023-07-28T04:57:42;17.26;79.94
63051;SHT30;49136;47.416;19.402;2023-07-28T05:00:08;17.25;80.41
63051;SHT30;49136;47.416;19.402;2023-07-28T05:02:33;17.28;80.14
63051;SHT30;49136;47.416;19.402;2023-07-28T05:04:59;17.35;80.69
63051;SHT30;49136;47.416;19.402;2023-07-28T05:07:25;17.37;80.67
63051;SHT30;49136;47.416;19.402;2023-07-28T05:09:50;17.49;79.96
63051;SHT30;49136;47.416;19.402;2023-07-28T05:12:15;17.63;78.92
63051;SHT30;49136;47.416;19.402;2023-07-28T05:14:41;17.78;78.47
63051;SHT30;49136;47.416;19.402;2023-07-28T05:17:06;17.85;78.33
63051;SHT30;49136;47.416;19.402;2023-07-28T05:19:32;17.87;79.06
63051;SHT30;49136;47.416;19.402;2023-07-28T05:21:59;17.88;78.72
63051;SHT30;49136;47.416;19.402;2023-07-28T05:24:24;18.13;77.86
63051;SHT30;49136;47.416;19.402;2023-07-28T05:26:49;18.34;77.96
63051;SHT30;49136;47.416;19.402;2023-07-28T05:29:15;18.54;78.30
63051;SHT30;49136;47.416;19.402;2023-07-28T05:31:40;18.95;76.63
63051;SHT30;49136;47.416;19.402;2023-07-28T05:34:06;19.17;75.74
63051;SHT30;49136;47.416;19.402;2023-07-28T05:36:31;19.30;75.23
63051;SHT30;49136;47.416;19.402;2023-07-28T05:38:57;19.28;76.08
63051;SHT30;49136;47.416;19.402;2023-07-28T05:41:23;19.27;75.60
63051;SHT30;49136;47.416;19.402;2023-07-28T05:43:49;19.31;75.68
63051;SHT30;49136;47.416;19.402;2023-07-28T05:46:15;19.50;75.11
63051;SHT30;49136;47.416;19.402;2023-07-28T05:48:40;19.66;74.45
63051;SHT30;49136;47.416;19.402;2023-07-28T05:51:06;19.83;75.10
63051;SHT30;49136;47.416;19.402;2023-07-28T05:53:31;20.01;75.03
63051;SHT30;49136;47.416;19.402;2023-07-28T05:55:57;20.05;75.42
63051;SHT30;49136;47.416;19.402;2023-07-28T05:58:22;20.03;73.84
63051;SHT30;49136;47.416;19.402;2023-07-28T06:00:47;20.12;74.72
63051;SHT30;49136;47.416;19.402;2023-07-28T06:03:13;20.25;73.84
63051;SHT30;49136;47.416;19.402;2023-07-28T06:05:39;20.34;74.45
63051;SHT30;49136;47.416;19.402;2023-07-28T06:08:08;20.61;73.42
63051;SHT30;49136;47.416;19.402;2023-07-28T06:10:34;20.66;72.48
63051;SHT30;49136;47.416;19.402;2023-07-28T06:13:00;20.61;71.91
63051;SHT30;49136;47.416;19.402;2023-07-28T06:15:26;20.66;72.55
63051;SHT30;49136;47.416;19.402;2023-07-28T06:17:51;20.76;72.62
63051;SHT30;49136;47.416;19.402;2023-07-28T06:20:17;20.93;71.98
63051;SHT30;49136;47.416;19.402;2023-07-28T06:22:43;21.10;72.08
63051;SHT30;49136;47.416;19.402;2023-07-28T06:25:08;21.42;71.93
63051;SHT30;49136;47.416;19.402;2023-07-28T06:27:34;21.73;70.34
63051;SHT30;49136;47.416;19.402;2023-07-28T06:29:59;21.87;70.93
63051;SHT30;49136;47.416;19.402;2023-07-28T06:32:25;21.89;69.33
63051;SHT30;49136;47.416;19.402;2023-07-28T06:34:53;21.96;69.61
63051;SHT30;49136;47.416;19.402;2023-07-28T06:37:18;22.34;68.76
63051;SHT30;49136;47.416;19.402;2023-07-28T06:39:43;22.66;69.82
63051;SHT30;49136;47.416;19.402;2023-07-28T06:42:10;22.96;67.95
63051;SHT30;49136;47.416;19.402;2023-07-28T06:44:36;22.91;67.60
63051;SHT30;49136;47.416;19.402;2023-07-28T06:47:02;22.84;67.25
63051;SHT30;49136;47.416;19.402;2023-07-28T06:49:28;22.74;67.12
63051;SHT30;49136;47.416;19.402;2023-07-28T06:51:53;22.66;67.87
63051;SHT30;49136;47.416;19.402;2023-07-28T06:54:19;22.57;68.14
63051;SHT30;49136;47.416;19.402;2023-07-28T06:56:44;22.67;67.66
63051;SHT30;49136;47.416;19.402;2023-07-28T06:59:10;22.74;66.90
63051;SHT30;49136;47.416;19.402;2023-07-28T07:01:37;22.69;66.78
63051;SHT30;49136;47.416;19.402;2023-07-28T07:04:02;22.70;66.83
63051;SHT30;49136;47.416;19.402;2023-07-28T07:06:30;22.80;66.11
63051;SHT30;49136;47.416;19.402;2023-07-28T07:08:55;23.29;66.14
63051;SHT30;49136;47.416;19.402;2023-07-28T07:11:20;23.81;65.41
63051;SHT30;49136;47.416;19.402;2023-07-28T07:13:46;24.44;63.62
63051;SHT30;49136;47.416;19.402;2023-07-28T07:16:18;25.14;63.12
63051;SHT30;49136;47.416;19.402;2023-07-28T07:18:43;25.73;62.16
63051;SHT30;49136;47.416;19.402;2023-07-28T07:21:09;26.29;60.54
63051;SHT30;49136;47.416;19.402;2023-07-28T07:23:35;26.08;57.47
63051;SHT30;49136;47.416;19.402;2023-07-28T07:26:01;25.68;57.69
63051;SHT30;49136;47.416;19.402;2023-07-28T07:28:26;25.49;58.97
63051;SHT30;49136;47.416;19.402;2023-07-28T07:30:54;25.33;58.90
63051;SHT30;49136;47.416;19.402;2023-07-28T07:33:19;25.04;58.44
63051;SHT30;49136;47.416;19.402;2023-07-28T07:35:44;25.01;59.53
63051;SHT30;49136;47.416;19.402;2023-07-28T07:38:10;24.80;59.15
63051;SHT30;49136;47.416;19.402;2023-07-28T07:40:35;25.23;59.43
63051;SHT30;49136;47.416;19.402;2023-07-28T07:43:02;25.60;58.67
63051;SHT30;49136;47.416;19.402;2023-07-28T07:45:32;25.80;57.07
63051;SHT30;49136;47.416;19.402;2023-07-28T07:48:01;26.23;56.45
63051;SHT30;49136;47.416;19.402;2023-07-28T07:50:26;26.43;55.03
63051;SHT30;49136;47.416;19.402;2023-07-28T07:52:51;26.27;55.05
63051;SHT30;49136;47.416;19.402;2023-07-28T07:55:17;26.12;56.06
63051;SHT30;49136;47.416;19.402;2023-07-28T07:57:42;25.73;56.97
63051;SHT30;49136;47.416;19.402;2023-07-28T08:00:08;25.40;57.50
63051;SHT30;49136;47.416;19.402;2023-07-28T08:02:34;25.47;58.04
63051;SHT30;49136;47.416;19.402;2023-07-28T08:05:00;25.66;56.86
63051;SHT30;49136;47.416;19.402;2023-07-28T08:07:25;25.85;56.92
63051;SHT30;49136;47.416;19.402;2023-07-28T08:09:51;25.96;55.92
63051;SHT30;49136;47.416;19.402;2023-07-28T08:12:16;26.12;56.88
63051;SHT30;49136;47.416;19.402;2023-07-28T08:14:42;26.03;56.67
63051;SHT30;49136;47.416;19.402;2023-07-28T08:17:08;25.98;57.39
63051;SHT30;49136;47.416;19.402;2023-07-28T08:19:34;25.78;57.15
63051;SHT30;49136;47.416;19.402;2023-07-28T08:22:01;25.74;57.15
63051;SHT30;49136;47.416;19.402;2023-07-28T08:24:28;25.98;57.26
63051;SHT30;49136;47.416;19.402;2023-07-28T08:26:54;26.09;57.12
63051;SHT30;49136;47.416;19.402;2023-07-28T08:29:19;26.22;57.65
63051;SHT30;49136;47.416;19.402;2023-07-28T08:31:44;26.15;57.47
63051;SHT30;49136;47.416;19.402;2023-07-28T08:34:10;26.26;57.99
63051;SHT30;49136;47.416;19.402;2023-07-28T08:36:35;26.37;56.43
63051;SHT30;49136;47.416;19.402;2023-07-28T08:39:01;26.27;56.37
63051;SHT30;49136;47.416;19.402;2023-07-28T08:41:26;26.29;56.16
63051;SHT30;49136;47.416;19.402;2023-07-28T08:43:53;26.41;57.05
63051;SHT30;49136;47.416;19.402;2023-07-28T08:46:19;26.58;58.06
63051;SHT30;49136;47.416;19.402;2023-07-28T08:48:45;26.62;56.95
63051;SHT30;49136;47.416;19.402;2023-07-28T08:51:12;26.68;57.39
63051;SHT30;49136;47.416;19.402;2023-07-28T08:53:39;26.75;57.88
63051;SHT30;49136;47.416;19.402;2023-07-28T08:56:05;26.71;56.38
63051;SHT30;49136;47.416;19.402;2023-07-28T08:58:30;26.98;56.09
63051;SHT30;49136;47.416;19.402;2023-07-28T09:00:56;26.93;56.36
63051;SHT30;49136;47.416;19.402;2023-07-28T09:03:26;27.29;56.47
63051;SHT30;49136;47.416;19.402;2023-07-28T09:05:58;27.68;54.43
63051;SHT30;49136;47.416;19.402;2023-07-28T09:08:24;27.82;56.45
63051;SHT30;49136;47.416;19.402;2023-07-28T09:10:49;27.81;54.93
63051;SHT30;49136;47.416;19.402;2023-07-28T09:13:17;27.71;53.70
63051;SHT30;49136;47.416;19.402;2023-07-28T09:15:42;27.61;53.78
63051;SHT30;49136;47.416;19.402;2023-07-28T09:18:12;27.65;54.17
63051;SHT30;49136;47.416;19.402;2023-07-28T09:20:40;27.68;53.78
63051;SHT30;49136;47.416;19.402;2023-07-28T09:23:08;27.86;55.19
63051;SHT30;49136;47.416;19.402;2023-07-28T09:25:37;27.92;53.64
63051;SHT30;49136;47.416;19.402;2023-07-28T09:28:03;28.09;53.33
63051;SHT30;49136;47.416;19.402;2023-07-28T09:30:49;28.18;53.38
63051;SHT30;49136;47.416;19.402;2023-07-28T09:33:29;28.33;53.58
63051;SHT30;49136;47.416;19.402;2023-07-28T09:35:55;28.18;52.21
63051;SHT30;49136;47.416;19.402;2023-07-28T09:38:22;28.33;53.08
63051;SHT30;49136;47.416;19.402;2023-07-28T09:40:48;28.41;53.11
63051;SHT30;49136;47.416;19.402;2023-07-28T09:43:14;28.45;52.15
63051;SHT30;49136;47.416;19.402;2023-07-28T09:45:40;28.44;52.79
63051;SHT30;49136;47.416;19.402;2023-07-28T09:48:09;28.47;53.82
63051;SHT30;49136;47.416;19.402;2023-07-28T09:50:38;28.54;52.16
63051;SHT30;49136;47.416;19.402;2023-07-28T09:53:08;28.55;52.82
63051;SHT30;49136;47.416;19.402;2023-07-28T09:55:35;28.73;52.32
63051;SHT30;49136;47.416;19.402;2023-07-28T09:58:04;28.78;52.82
63051;SHT30;49136;47.416;19.402;2023-07-28T10:00:31;28.87;52.90
63051;SHT30;49136;47.416;19.402;2023-07-28T10:02:58;29.18;52.86
63051;SHT30;49136;47.416;19.402;2023-07-28T10:05:24;29.27;53.09
63051;SHT30;49136;47.416;19.402;2023-07-28T10:07:49;29.39;53.37
63051;SHT30;49136;47.416;19.402;2023-07-28T10:10:15;29.55;52.98
63051;SHT30;49136;47.416;19.402;2023-07-28T10:12:53;29.54;51.99
63051;SHT30;49136;47.416;19.402;2023-07-28T10:15:21;29.49;52.69
63051;SHT30;49136;47.416;19.402;2023-07-28T10:17:55;29.59;52.90
63051;SHT30;49136;47.416;19.402;2023-07-28T10:20:36;29.82;52.76
63051;SHT30;49136;47.416;19.402;2023-07-28T10:25:32;30.04;52.00
63051;SHT30;49136;47.416;19.402;2023-07-28T10:27:58;29.98;51.41
63051;SHT30;49136;47.416;19.402;2023-07-28T10:30:24;29.91;51.79
63051;SHT30;49136;47.416;19.402;2023-07-28T10:32:49;29.86;52.00
63051;SHT30;49136;47.416;19.402;2023-07-28T10:37:44;30.04;51.34
63051;SHT30;49136;47.416;19.402;2023-07-28T10:40:29;30.15;51.50
63051;SHT30;49136;47.416;19.402;2023-07-28T10:42:56;30.14;51.84
63051;SHT30;49136;47.416;19.402;2023-07-28T10:45:24;30.15;51.71
63051;SHT30;49136;47.416;19.402;2023-07-28T10:47:51;30.11;52.07
63051;SHT30;49136;47.416;19.402;2023-07-28T10:50:18;30.14;50.93
63051;SHT30;49136;47.416;19.402;2023-07-28T10:52:45;30.06;52.98
63051;SHT30;49136;47.416;19.402;2023-07-28T10:55:22;30.18;52.14
63051;SHT30;49136;47.416;19.402;2023-07-28T10:57:49;30.33;51.63
63051;SHT30;49136;47.416;19.402;2023-07-28T11:00:17;30.32;51.49
63051;SHT30;49136;47.416;19.402;2023-07-28T11:02:48;30.15;51.94
63051;SHT30;49136;47.416;19.402;2023-07-28T11:05:28;30.33;50.79
63051;SHT30;49136;47.416;19.402;2023-07-28T11:07:59;30.43;51.61
63051;SHT30;49136;47.416;19.402;2023-07-28T11:10:28;30.45;50.05
63051;SHT30;49136;47.416;19.402;2023-07-28T11:13:01;30.42;50.67
63051;SHT30;49136;47.416;19.402;2023-07-28T11:15:27;30.49;50.90
63051;SHT30;49136;47.416;19.402;2023-07-28T11:17:54;30.66;51.19
63051;SHT30;49136;47.416;19.402;2023-07-28T11:20:23;30.69;50.94
63051;SHT30;49136;47.416;19.402;2023-07-28T11:22:57;30.49;50.79
63051;SHT30;49136;47.416;19.402;2023-07-28T11:25:24;30.46;51.96
63051;SHT30;49136;47.416;19.402;2023-07-28T11:27:50;30.66;50.78
63051;SHT30;49136;47.416;19.402;2023-07-28T11:30:17;30.69;50.13
63051;SHT30;49136;47.416;19.402;2023-07-28T11:32:46;30.65;50.10
63051;SHT30;49136;47.416;19.402;2023-07-28T11:35:12;30.67;49.96
63051;SHT30;49136;47.416;19.402;2023-07-28T11:37:40;30.86;49.81
63051;SHT30;49136;47.416;19.402;2023-07-28T11:40:07;30.94;50.08
63051;SHT30;49136;47.416;19.402;2023-07-28T11:42:53;31.11;50.77
63051;SHT30;49136;47.416;19.402;2023-07-28T11:45:20;31.04;50.04
63051;SHT30;49136;47.416;19.402;2023-07-28T11:48:02;31.17;49.99
63051;SHT30;49136;47.416;19.402;2023-07-28T11:50:35;31.32;50.32
63051;SHT30;49136;47.416;19.402;2023-07-28T11:53:04;31.51;49.67
63051;SHT30;49136;47.416;19.402;2023-07-28T11:55:31;31.81;50.06
63051;SHT30;49136;47.416;19.402;2023-07-28T11:57:57;31.91;48.93
63051;SHT30;49136;47.416;19.402;2023-07-28T12:00:32;31.98;50.29
63051;SHT30;49136;47.416;19.402;2023-07-28T12:03:04;32.25;50.74
63051;SHT30;49136;47.416;19.402;2023-07-28T12:05:30;32.19;49.84
63051;SHT30;49136;47.416;19.402;2023-07-28T12:07:55;32.18;50.27
63051;SHT30;49136;47.416;19.402;2023-07-28T12:10:21;32.15;49.04
63051;SHT30;49136;47.416;19.402;2023-07-28T12:12:47;32.07;49.49
63051;SHT30;49136;47.416;19.402;2023-07-28T12:20:40;32.36;49.42
63051;SHT30;49136;47.416;19.402;2023-07-28T12:23:06;32.56;48.84
63051;SHT30;49136;47.416;19.402;2023-07-28T12:25:32;32.61;48.86
63051;SHT30;49136;47.416;19.402;2023-07-28T12:27:58;32.49;48.72
63051;SHT30;49136;47.416;19.402;2023-07-28T12:30:23;32.49;49.54
63051;SHT30;49136;47.416;19.402;2023-07-28T12:32:49;32.52;47.72
63051;SHT30;49136;47.416;19.402;2023-07-28T12:35:14;32.70;47.73
63051;SHT30;49136;47.416;19.402;2023-07-28T12:37:40;32.92;47.47
63051;SHT30;49136;47.416;19.402;2023-07-28T12:40:07;33.07;48.55
63051;SHT30;49136;47.416;19.402;2023-07-28T12:42:33;33.11;47.80
63051;SHT30;49136;47.416;19.402;2023-07-28T12:44:59;33.33;47.63
63051;SHT30;49136;47.416;19.402;2023-07-28T12:47:24;33.26;47.08
63051;SHT30;49136;47.416;19.402;2023-07-28T12:49:50;32.98;47.23
63051;SHT30;49136;47.416;19.402;2023-07-28T12:52:15;33.15;47.64
63051;SHT30;49136;47.416;19.402;2023-07-28T12:54:41;33.57;46.76
63051;SHT30;49136;47.416;19.402;2023-07-28T12:57:08;33.76;46.58
63051;SHT30;49136;47.416;19.402;2023-07-28T12:59:36;33.54;46.84
63051;SHT30;49136;47.416;19.402;2023-07-28T13:02:01;33.33;46.68
63051;SHT30;49136;47.416;19.402;2023-07-28T13:04:26;33.35;47.17
63051;SHT30;49136;47.416;19.402;2023-07-28T13:06:52;33.53;47.25
63051;SHT30;49136;47.416;19.402;2023-07-28T13:09:17;33.56;47.60
63051;SHT30;49136;47.416;19.402;2023-07-28T13:11:43;33.56;46.88
63051;SHT30;49136;47.416;19.402;2023-07-28T13:14:08;33.53;47.36
63051;SHT30;49136;47.416;19.402;2023-07-28T13:16:33;33.39;48.34
63051;SHT30;49136;47.416;19.402;2023-07-28T13:18:59;33.41;47.95
63051;SHT30;49136;47.416;19.402;2023-07-28T13:21:25;33.14;47.34
63051;SHT30;49136;47.416;19.402;2023-07-28T13:23:50;32.53;48.25
63051;SHT30;49136;47.416;19.402;2023-07-28T13:26:16;32.76;48.53
63051;SHT30;49136;47.416;19.402;2023-07-28T13:28:41;32.77;48.81
63051;SHT30;49136;47.416;19.402;2023-07-28T13:31:12;32.73;48.88
63051;SHT30;49136;47.416;19.402;2023-07-28T13:33:38;32.59;49.42
63051;SHT30;49136;47.416;19.402;2023-07-28T13:36:03;32.67;48.63
63051;SHT30;49136;47.416;19.402;2023-07-28T13:38:32;33.00;48.75
63051;SHT30;49136;47.416;19.402;2023-07-28T13:40:57;33.21;48.73
63051;SHT30;49136;47.416;19.402;2023-07-28T13:43:23;33.02;48.32
63051;SHT30;49136;47.416;19.402;2023-07-28T13:45:48;33.01;48.20
63051;SHT30;49136;47.416;19.402;2023-07-28T13:48:14;32.83;49.11
63051;SHT30;49136;47.416;19.402;2023-07-28T13:50:39;33.15;49.02
63051;SHT30;49136;47.416;19.402;2023-07-28T13:53:05;33.32;48.15
63051;SHT30;49136;47.416;19.402;2023-07-28T13:55:30;32.81;47.99
63051;SHT30;49136;47.416;19.402;2023-07-28T13:57:56;32.25;49.33
63051;SHT30;49136;47.416;19.402;2023-07-28T14:00:21;31.81;49.38
63051;SHT30;49136;47.416;19.402;2023-07-28T14:02:47;31.76;49.67
63051;SHT30;49136;47.416;19.402;2023-07-28T14:05:12;31.54;51.08
63051;SHT30;49136;47.416;19.402;2023-07-28T14:07:38;31.41;50.67
63051;SHT30;49136;47.416;19.402;2023-07-28T14:10:03;31.15;50.74
63051;SHT30;49136;47.416;19.402;2023-07-28T14:12:29;30.92;51.27
63051;SHT30;49136;47.416;19.402;2023-07-28T14:14:54;30.65;51.82
63051;SHT30;49136;47.416;19.402;2023-07-28T14:17:20;30.45;52.26
63051;SHT30;49136;47.416;19.402;2023-07-28T14:19:45;30.42;52.43
63051;SHT30;49136;47.416;19.402;2023-07-28T14:22:12;30.56;52.10
63051;SHT30;49136;47.416;19.402;2023-07-28T14:24:37;30.76;51.56
63051;SHT30;49136;47.416;19.402;2023-07-28T14:27:04;30.87;51.79
63051;SHT30;49136;47.416;19.402;2023-07-28T14:29:29;30.74;51.82
63051;SHT30;49136;47.416;19.402;2023-07-28T14:31:55;30.49;51.82
63051;SHT30;49136;47.416;19.402;2023-07-28T14:34:20;30.29;52.16
63051;SHT30;49136;47.416;19.402;2023-07-28T14:36:46;30.24;53.24
63051;SHT30;49136;47.416;19.402;2023-07-28T14:39:11;30.35;52.34
63051;SHT30;49136;47.416;19.402;2023-07-28T14:41:37;30.67;52.99
63051;SHT30;49136;47.416;19.402;2023-07-28T14:44:02;30.87;52.79
63051;SHT30;49136;47.416;19.402;2023-07-28T14:46:28;30.92;51.88
63051;SHT30;49136;47.416;19.402;2023-07-28T14:48:54;30.80;52.25
63051;SHT30;49136;47.416;19.402;2023-07-28T14:51:20;30.80;52.16
63051;SHT30;49136;47.416;19.402;2023-07-28T14:53:45;30.94;52.19
63051;SHT30;49136;47.416;19.402;2023-07-28T14:56:12;30.94;52.19
63051;SHT30;49136;47.416;19.402;2023-07-28T14:58:38;31.02;51.82
63051;SHT30;49136;47.416;19.402;2023-07-28T15:01:04;31.07;52.34
63051;SHT30;49136;47.416;19.402;2023-07-28T15:03:30;31.18;50.48
63051;SHT30;49136;47.416;19.402;2023-07-28T15:05:56;31.32;49.87
63051;SHT30;49136;47.416;19.402;2023-07-28T15:08:22;31.29;51.30
63051;SHT30;49136;47.416;19.402;2023-07-28T15:10:48;31.29;50.24
63051;SHT30;49136;47.416;19.402;2023-07-28T15:13:13;31.32;51.36
63051;SHT30;49136;47.416;19.402;2023-07-28T15:15:39;31.19;51.45
63051;SHT30;49136;47.416;19.402;2023-07-28T15:18:04;31.11;51.65
63051;SHT30;49136;47.416;19.402;2023-07-28T15:20:29;31.19;51.21
63051;SHT30;49136;47.416;19.402;2023-07-28T15:22:55;31.10;50.95
63051;SHT30;49136;47.416;19.402;2023-07-28T15:25:20;31.08;51.06